Evan Wibowo

Recruteur en chef - Persebaya
6 Août 2028
Dimanche
Processus

Personnalité

Adaptabilité (9) Ambition (19) Controverse (10) Loyauté (11) Pression (11) Professionnalisme (17) Sportivité (14) Tempérament (20)

Profil

Style d'entraînement Démocratique
Diplôme Continental A
Détermination 10
Gestion des joueurs 8
Motivation 8
Discipline 4
Satisfaction professionnelle
100%
Fatigue
0%
Rôle Recruteur en chef
Salaire 41.9K p/s
Contrat 14.03.2029

Performance

Comportement Bon
Efficacité de l'entraînement
24%
Développement des joueurs
40%
Prévention des blessures
35%
Mise en place tactique
20%

Événements récents

A participé à une réunion de recrutement maintenant
A participé à une réunion de recrutement 7j
A participé à une réunion de recrutement 7j
A participé à une réunion de recrutement 14j
A participé à une réunion de recrutement 14j
A participé à une réunion de recrutement 21j
A participé à une réunion de recrutement 21j
A participé à une réunion de recrutement 28j

Suivi en cours

87
Joueur Club Statut Capacité Confiance Observé Dernière observation Dernier vote
Sudi Abdallah Persijap Refusé 93 / 103 76% 1 31.07.2028 Refuser
Luquinhas PSBS Biak Refusé 94 / 103 76% 1 02.06.2028 Refuser
Mauricio Vera Bhayangkara Presisi Actif 122 / 128 40% 1 17.01.2028 -
Iago Mendonça Borneo Actif 100 / 100 40% 4 27.12.2027 -
Gabriel Díaz Patronato Actif 108 / 130 40% 1 27.12.2027 -
Ivar Jenner Dewa United Actif 107 / 106 40% 2 26.12.2027 -
Tomás Rojas Atlanta Actif 109 / 129 40% 1 25.12.2027 -
Agustín Maidana San Marcos de Arica Actif 111 / 94 40% 1 25.12.2027 -
Radovan Pankov Persija Actif 112 / 102 40% 2 24.12.2027 -
Mirza Mustafić Bali United Actif 97 / 98 40% 1 24.12.2027 -
Jaime Giraldo Semen Padang Actif 101 / 108 40% 3 23.12.2027 -
Enzo Silcan Almagro Actif 105 / 110 40% 1 22.12.2027 -
Ruxi Madura United Actif 95 / 103 40% 2 19.12.2027 -
Kerim Palić Madura United Actif 106 / 113 40% 1 18.12.2027 -
Borja Martínez Persijap Actif 109 / 95 40% 1 18.12.2027 -
Leonel Pollacchi San Telmo Actif 112 / 120 40% 3 15.12.2027 -
Igor Inocêncio Maluku Utara United Actif 120 / 122 40% 3 14.12.2027 -
Bruno Tubarão Persija Actif 120 / 119 40% 3 13.12.2027 -
Franco Hanashiro Colegiales Actif 102 / 120 40% 1 13.12.2027 -
Pablo Oliveira Arema Actif 107 / 104 40% 1 06.12.2027 -
Miroslav Maričić Persis Actif 104 / 102 40% 1 20.11.2027 -
Franco Ramos Mingo PSIM Actif 93 / 91 40% 1 20.11.2027 -
Yeferson Rodallega Envigado Actif 111 / 117 40% 2 18.11.2027 -
Mendonça Madura United Actif 94 / 98 40% 1 18.11.2027 -
Johnathan Dewa United Actif 109 / 115 40% 1 17.11.2027 -
Brandon Wilson Bali United Actif 86 / 103 40% 1 04.11.2027 -
Thijmen Goppel Bali United Actif 120 / 117 40% 2 06.10.2027 -
Ramón Bueno Persita Actif 101 / 104 40% 1 05.09.2027 -
Danijel Lončar Persib Actif 112 / 92 40% 2 24.08.2027 -
Mohammad Al-Husseini Borneo Actif 86 / 94 40% 1 15.08.2027 -
Sávio PSM Actif 107 / 100 40% 1 12.08.2027 -
Lautaro Núñez Alvarado Actif 98 / 104 40% 2 10.08.2027 -
Remeao Hutton Gillingham Actif 105 / 94 40% 1 07.08.2027 -
Aly Ndom Persijap Actif 99 / 91 40% 1 03.08.2027 -
Tin Martić Semen Padang Actif 102 / 106 40% 1 31.07.2027 -
Ofek Biton Bali United Actif 107 / 117 40% 2 19.07.2027 Plus d'infos
Nikita Pechenkin Sokol Actif 95 / 102 40% 6 13.07.2027 -
Stefan Lončar Akron Actif 118 / 126 40% 3 11.07.2027 -
David Shavlokhov Chernomorets Actif 93 / 82 40% 3 07.07.2027 -
David Kokoev Yenisey Actif 99 / 104 40% 3 07.07.2027 -
Alexey Berdnikov Chelyabinsk Actif 93 / 81 40% 2 02.07.2027 -
Oleg Lanin Shinnik Actif 98 / 92 40% 3 30.06.2027 -
Alan Khabalov Ufa Actif 90 / 90 40% 2 26.06.2027 -
Joe Snowdon Swindon Town Actif 93 / 88 40% 1 25.06.2027 -
Niccolò Zanellato Casarano Actif 114 / 99 40% 1 24.06.2027 -
Mickel Miller Huddersfield Town Actif 112 / 123 40% 1 22.06.2027 -
Pêpê Pafos Actif 125 / 118 40% 1 20.06.2027 -
Hamza El Kaouakibi Südtirol Actif 101 / 115 40% 2 19.06.2027 -
Saminu Abdullahi KAMAZ Actif 93 / 86 40% 3 30.05.2027 -
Mario Ćurić Torpedo Moscow Actif 102 / 91 40% 2 29.05.2027 -
Kirill Malyarov Shinnik Actif 102 / 102 40% 4 24.05.2027 -
Riley Owen Stevenage Actif 107 / 95 40% 3 23.05.2027 -
Daniil Marugin Shinnik Actif 87 / 100 40% 2 21.05.2027 -
Vladis Emmersón Yenisey Actif 101 / 95 40% 2 21.05.2027 -
Vladislav Masternoy SKA Khabarovsk Actif 87 / 83 40% 3 17.05.2027 -
Kamil Ibragimov Volga Actif 101 / 92 40% 1 14.05.2027 -
Tiri Persijap Actif 115 / 115 30% 1 / 1m 12.05.2027 -
Rakhmatsho Rakhmatzoda Persijap Actif 92 / 95 30% 1 / 1m 12.05.2027 -
Pavel Maslov Chaika Actif 107 / 96 40% 3 09.05.2027 -
Fahd Moufi Baltika Actif 111 / 134 40% 2 09.05.2027 -
Leandro Martins Benfica Actif 85 / 94 40% 1 08.05.2027 -
Igor Konovalov Chernomorets Actif 92 / 86 40% 1 04.05.2027 -
Ruslan Baitukov Chelyabinsk Actif 97 / 83 40% 1 26.04.2027 -
Alessio Rizza Livorno Actif 102 / 113 40% 1 26.04.2027 -
Daniil Penchikov Arsenal Tula Actif 104 / 97 40% 2 25.04.2027 -
Giorgi Kantaria Neftekhimik Actif 98 / 95 40% 2 24.04.2027 -
Gleb Shevchenko Torpedo Moscow Actif 98 / 101 40% 2 21.04.2027 -
Vladislav Malkevich Ural Actif 95 / 92 40% 1 21.04.2027 -
Denis Fomin SKA Khabarovsk Actif 104 / 100 40% 1 18.04.2027 -
Soslan Kagermazov Dinamo Makhachkala Actif 91 / 109 40% 2 15.04.2027 -
Vyacheslav Yakimov Fakel Actif 117 / 108 40% 1 14.04.2027 -
Kirill Bolshakov Arsenal Tula Actif 110 / 101 40% 1 12.04.2027 -
Mitja Križan Rodina Actif 102 / 96 40% 1 10.04.2027 -
Leo Goglichidze Rodina Actif 123 / 118 40% 2 09.04.2027 -
Vladislav Kamilov Ufa Actif 93 / 92 40% 2 08.04.2027 -
Konstantin Kertanov Chelyabinsk Actif 105 / 95 40% 2 08.04.2027 -
Andrea Chukanov Yenisey Actif 105 / 91 40% 2 03.04.2027 -
Konstantin Kovalev Volga Actif 87 / 103 40% 2 03.04.2027 -
Artem Makarchuk Sochi Actif 122 / 129 40% 1 30.03.2027 -
Yegor Noskov SKA Khabarovsk Actif 99 / 78 40% 2 23.03.2027 -
Mingiyan Beveev Baltika Actif 105 / 100 40% 1 15.03.2027 -
Alexandr Troshechkin Rotor Actif 97 / 93 40% 1 12.03.2027 -
Artur Cherny Shinnik Actif 101 / 109 40% 1 07.03.2027 -
Ezequiel Vidal PSIM Actif 127 / 127 52% 1 / 1m 19.08.2026 -
Giovanni González River Plate Actif 139 / 121 40% 1 01.08.2026 -
Alejo Osella Independiente Rivadavia Actif 113 / 112 40% 1 01.08.2026 -
Takahiro Sekine Sydney FC Actif 110 / 124 40% 1 01.08.2026 -